Terminal Aerodrome Forecast
Issued by NWS

Home | Current Version | Previous Version | Text Only | Print | Product List | Glossary On
Versions: 1 2 3 4 5 6 7 8 9 10 11 12 13 14 15 16 17 18 19 20
702
FTAK31 PAJN 250304 AAA
TAFASI
TAF AMD
PASI 250304Z 2503/2524 20006KT P6SM -SHRA SCT008 OVC025
      TEMPO 2503/2507 4SM -RA BR BKN008 OVC020
     FM250900 VRB03KT 6SM BCFG FEW002 SCT005 OVC025
     FM252200 24005KT P6SM SCT025 BKN040=

USA.gov is the U.S. government's official web portal to all federal, state and local government web resources and services.